Time;durP1;ratioP1;P1;durP2;ratioP2;P2;SDS_P1;SDS_P2;PMS_P1;PMS_P2;Temp;Humidity;BMP_temperature;BMP_pressure;BME280_temperature;BME280_humidity;BME280_pressure;Samples;Min_cycle;Max_cycle;Signal;HPM_P1;HPM_P2
2022/10/24 00:01:17;;;;;;;4.38;3.13;;;13.70;99.90;;;;;;7369529;19;20345;-78
2022/10/24 00:03:43;;;;;;;5.97;3.08;;;13.60;99.90;;;;;;7366002;19;20320;-76
2022/10/24 00:06:09;;;;;;;4.63;2.97;;;13.60;99.90;;;;;;7364149;19;20317;-76
2022/10/24 00:08:35;;;;;;;3.25;2.95;;;13.60;99.90;;;;;;7364697;19;20337;-77
2022/10/24 00:11:01;;;;;;;5.55;3.40;;;13.60;99.90;;;;;;7371493;19;20320;-76
2022/10/24 00:13:26;;;;;;;3.60;3.30;;;13.60;99.90;;;;;;7367878;19;20332;-78
2022/10/24 00:15:52;;;;;;;6.43;3.70;;;13.60;99.90;;;;;;7366444;19;20332;-77
2022/10/24 00:18:17;;;;;;;4.50;3.13;;;13.60;99.90;;;;;;7363157;19;20301;-76
2022/10/24 00:20:43;;;;;;;7.80;3.20;;;13.60;99.90;;;;;;7365500;19;20309;-76
2022/10/24 00:23:09;;;;;;;3.53;3.00;;;13.60;99.90;;;;;;7362020;19;21185;-75
2022/10/24 00:25:34;;;;;;;3.50;2.65;;;13.70;99.90;;;;;;7365290;19;20452;-76
2022/10/24 00:28:00;;;;;;;4.63;2.90;;;13.70;99.90;;;;;;7361927;19;20316;-77
2022/10/24 00:30:26;;;;;;;5.72;3.17;;;13.70;99.90;;;;;;7363139;19;20710;-76
2022/10/24 00:32:51;;;;;;;3.00;2.80;;;13.70;99.90;;;;;;7362241;19;20308;-76
2022/10/24 00:35:17;;;;;;;2.87;2.57;;;13.70;99.90;;;;;;7363685;19;20336;-77
2022/10/24 00:37:42;;;;;;;3.28;2.60;;;13.70;99.90;;;;;;7365793;19;21238;-78
2022/10/24 00:40:09;;;;;;;3.20;2.77;;;13.80;99.90;;;;;;7365566;19;20345;-76
2022/10/24 00:42:35;;;;;;;4.70;3.00;;;13.70;99.90;;;;;;7366149;19;20715;-76
2022/10/24 00:45:01;;;;;;;3.57;3.03;;;13.70;99.90;;;;;;7368757;19;21319;-77
2022/10/24 00:47:27;;;;;;;3.00;2.67;;;13.70;99.90;;;;;;7364123;19;20344;-77
2022/10/24 00:49:59;;;;;;;4.10;3.05;;;13.70;99.90;;;;;;7363714;19;20357;-77
2022/10/24 00:52:27;;;;;;;2.47;2.17;;;13.70;99.90;;;;;;7361362;19;20348;-78
2022/10/24 00:54:53;;;;;;;3.10;2.38;;;13.80;99.90;;;;;;7365190;19;20331;-77
2022/10/24 00:57:37;;;;;;;3.15;2.40;;;13.80;99.90;;;;;;7362134;19;20312;-77
2022/10/24 01:00:08;;;;;;;3.95;2.83;;;13.80;99.90;;;;;;7365163;19;20359;-78
2022/10/24 01:02:34;;;;;;;3.03;2.60;;;13.80;99.90;;;;;;7365096;19;20380;-77
2022/10/24 01:05:00;;;;;;;4.83;2.80;;;13.80;99.90;;;;;;7363110;19;20419;-78
2022/10/24 01:07:46;;;;;;;4.32;2.67;;;13.80;99.90;;;;;;7362171;19;21272;-78
2022/10/24 01:10:47;;;;;;;5.82;3.63;;;13.80;99.90;;;;;;7363082;19;20313;-77
2022/10/24 01:13:32;;;;;;;4.88;3.80;;;13.70;99.90;;;;;;7258058;19;2020302;-77
2022/10/24 01:16:18;;;;;;;4.10;3.40;;;13.70;99.90;;;;;;7260479;19;2004396;-77
2022/10/24 01:19:00;;;;;;;4.03;3.55;;;13.60;99.90;;;;;;7367807;19;20320;-77
2022/10/24 01:21:33;;;;;;;5.05;4.05;;;13.60;99.90;;;;;;7266726;19;2020045;-78
2022/10/24 01:24:32;;;;;;;4.65;4.03;;;13.60;99.90;;;;;;7369349;19;20308;-78
2022/10/24 01:27:06;;;;;;;6.07;4.00;;;13.60;99.90;;;;;;7265816;19;2004496;-77
2022/10/24 01:29:51;;;;;;;4.45;3.92;;;13.60;99.90;;;;;;7370808;19;20367;-77
2022/10/24 01:32:29;;;;;;;4.10;3.53;;;13.60;99.90;;;;;;7266697;19;2004250;-78
2022/10/24 01:35:19;;;;;;;4.00;3.50;;;13.50;99.90;;;;;;7369477;19;20320;-78
2022/10/24 01:37:51;;;;;;;4.70;3.55;;;13.50;99.90;;;;;;7368003;19;20305;-78
2022/10/24 01:40:23;;;;;;;5.90;4.00;;;13.50;99.90;;;;;;7266346;19;2020273;-78
2022/10/24 01:42:49;;;;;;;3.97;3.50;;;13.50;99.90;;;;;;7367582;19;20336;-78
2022/10/24 01:45:21;;;;;;;3.53;2.80;;;13.50;99.90;;;;;;7370055;19;20317;-78
2022/10/24 01:47:49;;;;;;;4.38;3.45;;;13.50;99.90;;;;;;7265089;19;2006006;-77
2022/10/24 01:50:14;;;;;;;4.13;3.57;;;13.50;99.90;;;;;;7370160;19;20308;-77
2022/10/24 01:52:41;;;;;;;4.50;3.53;;;13.40;99.90;;;;;;7365069;19;20327;-77
2022/10/24 01:55:07;;;;;;;4.78;3.25;;;13.40;99.90;;;;;;7369184;19;20312;-77
2022/10/24 01:57:33;;;;;;;3.55;3.08;;;13.40;99.90;;;;;;7368424;19;20369;-77
2022/10/24 01:59:58;;;;;;;3.60;3.17;;;13.40;99.90;;;;;;7368808;19;20384;-78
2022/10/24 02:02:30;;;;;;;3.03;2.60;;;13.40;99.90;;;;;;7367708;19;20365;-78
2022/10/24 02:05:17;;;;;;;3.88;3.15;;;13.30;99.90;;;;;;7369946;19;20317;-77
2022/10/24 02:07:45;;;;;;;4.18;3.17;;;13.30;99.90;;;;;;7367880;19;20320;-78
2022/10/24 02:10:28;;;;;;;3.70;2.97;;;13.30;99.90;;;;;;7370710;19;20296;-77
2022/10/24 02:13:00;;;;;;;3.78;3.15;;;13.30;99.90;;;;;;7266201;19;2020048;-77
2022/10/24 02:15:31;;;;;;;3.28;2.83;;;13.30;99.90;;;;;;7376536;19;21451;-77
2022/10/24 02:17:57;;;;;;;3.22;2.92;;;13.30;99.90;;;;;;7371531;19;20994;-77
2022/10/24 02:20:44;;;;;;;5.13;3.00;;;13.30;99.90;;;;;;7369608;19;20348;-77
2022/10/24 02:23:33;;;;;;;5.88;3.47;;;13.30;99.90;;;;;;7344536;19;21071;-77
2022/10/24 02:25:59;;;;;;;4.32;3.80;;;13.30;99.90;;;;;;7243059;19;2020034;-78
2022/10/24 02:28:31;;;;;;;6.72;3.92;;;13.20;99.90;;;;;;7260461;19;20357;-78
2022/10/24 02:31:00;;;;;;;5.37;3.97;;;13.20;99.90;;;;;;7352454;19;20424;-77
2022/10/24 02:33:26;;;;;;;5.35;4.10;;;13.20;99.90;;;;;;7365657;19;20312;-78
2022/10/24 02:35:51;;;;;;;4.05;3.22;;;13.20;99.90;;;;;;7368911;19;20313;-77
2022/10/24 02:38:23;;;;;;;4.53;3.90;;;13.20;99.90;;;;;;7366177;19;20359;-78
2022/10/24 02:40:49;;;;;;;4.05;3.53;;;13.20;99.90;;;;;;7350613;19;20337;-78
2022/10/24 02:43:14;;;;;;;4.60;3.93;;;13.20;99.90;;;;;;7350394;19;20324;-77
2022/10/24 02:45:40;;;;;;;6.03;4.20;;;13.10;99.90;;;;;;7349210;19;20309;-78
2022/10/24 02:48:08;;;;;;;4.20;3.53;;;13.10;99.90;;;;;;7363765;19;20354;-77
2022/10/24 02:50:34;;;;;;;4.47;3.30;;;13.10;99.90;;;;;;7346293;19;20353;-77
2022/10/24 02:53:00;;;;;;;5.40;3.90;;;13.10;99.90;;;;;;7366081;19;21178;-77
2022/10/24 02:55:25;;;;;;;4.95;3.78;;;13.00;99.90;;;;;;7324044;19;20335;-77
2022/10/24 02:57:51;;;;;;;5.87;4.17;;;13.00;99.90;;;;;;7364848;19;20329;-77
2022/10/24 03:00:17;;;;;;;4.50;3.70;;;13.00;99.90;;;;;;7322857;19;21250;-77
2022/10/24 03:02:43;;;;;;;4.40;4.00;;;13.00;99.90;;;;;;7364151;19;20338;-77
2022/10/24 03:05:08;;;;;;;4.72;4.00;;;13.00;99.90;;;;;;7365141;19;20661;-77
2022/10/24 03:07:34;;;;;;;4.50;3.50;;;13.00;99.90;;;;;;7362792;19;20379;-77
2022/10/24 03:10:00;;;;;;;4.60;3.33;;;13.00;99.90;;;;;;7366485;19;20316;-77
2022/10/24 03:12:25;;;;;;;4.32;3.42;;;13.00;99.90;;;;;;7338781;19;20320;-78
2022/10/24 03:14:51;;;;;;;6.20;3.70;;;13.00;99.90;;;;;;7364128;19;20679;-77
2022/10/24 03:17:16;;;;;;;4.80;4.30;;;13.00;99.90;;;;;;7363261;19;20799;-77
2022/10/24 03:19:44;;;;;;;5.47;4.07;;;13.00;99.90;;;;;;7365735;19;21014;-77
2022/10/24 03:22:09;;;;;;;4.65;3.83;;;13.00;99.90;;;;;;7340794;19;21384;-77
2022/10/24 03:24:35;;;;;;;4.60;4.00;;;13.00;99.90;;;;;;7365800;19;20323;-78
2022/10/24 03:27:00;;;;;;;4.97;4.20;;;13.00;99.90;;;;;;7361683;19;20331;-78
2022/10/24 03:29:26;;;;;;;4.05;3.47;;;12.90;99.90;;;;;;7361554;19;20864;-78
2022/10/24 03:31:51;;;;;;;4.65;4.22;;;12.90;99.90;;;;;;7334259;19;21405;-77
2022/10/24 03:34:17;;;;;;;4.07;3.63;;;12.80;99.90;;;;;;7364526;19;20688;-77
2022/10/24 03:36:42;;;;;;;5.07;3.93;;;12.80;99.90;;;;;;7333920;19;20329;-78
2022/10/24 03:39:08;;;;;;;6.78;4.07;;;12.70;99.90;;;;;;7359714;19;20320;-77
2022/10/24 03:41:34;;;;;;;5.50;4.40;;;12.70;99.90;;;;;;7352246;19;20301;-77
2022/10/24 03:43:59;;;;;;;4.57;3.73;;;12.60;99.90;;;;;;7361062;19;20308;-79
2022/10/24 03:46:25;;;;;;;4.05;3.63;;;12.70;99.90;;;;;;7349581;19;20855;-77
2022/10/24 03:48:50;;;;;;;5.47;3.80;;;12.60;99.90;;;;;;7362408;19;20344;-77
2022/10/24 03:51:16;;;;;;;5.70;4.30;;;12.60;99.90;;;;;;7356563;19;20408;-79
2022/10/24 03:53:42;;;;;;;5.38;4.53;;;12.60;99.90;;;;;;7365495;19;20883;-78
2022/10/24 03:56:07;;;;;;;4.93;4.10;;;12.60;99.90;;;;;;7363756;19;20309;-77
2022/10/24 03:58:33;;;;;;;4.63;3.83;;;12.60;99.90;;;;;;7363319;19;20317;-77
2022/10/24 04:00:58;;;;;;;7.15;4.53;;;12.60;99.90;;;;;;7364550;19;20308;-77
2022/10/24 04:03:27;;;;;;;5.60;4.50;;;12.60;99.90;;;;;;7364615;19;20329;-78
2022/10/24 04:05:52;;;;;;;4.75;4.25;;;12.50;99.90;;;;;;7365532;19;20337;-78
2022/10/24 04:08:18;;;;;;;5.73;4.50;;;12.50;99.90;;;;;;7363921;19;20312;-77
2022/10/24 04:10:43;;;;;;;4.97;4.45;;;12.40;99.90;;;;;;7341332;19;20329;-77
2022/10/24 04:13:09;;;;;;;5.37;4.43;;;12.40;99.90;;;;;;7360501;19;20428;-79
2022/10/24 04:15:35;;;;;;;5.13;4.53;;;12.40;99.90;;;;;;7363274;19;20313;-77
2022/10/24 04:18:00;;;;;;;5.38;4.60;;;12.40;99.90;;;;;;7359675;19;20312;-76
2022/10/24 04:20:26;;;;;;;5.87;4.40;;;12.40;99.90;;;;;;7311934;19;20329;-76
2022/10/24 04:22:51;;;;;;;5.10;4.60;;;12.30;99.90;;;;;;7360597;19;20316;-78
2022/10/24 04:25:17;;;;;;;5.93;4.70;;;12.30;99.90;;;;;;7343218;19;20902;-78
2022/10/24 04:27:44;;;;;;;5.53;4.70;;;12.30;99.90;;;;;;7341459;19;20316;-75
2022/10/24 04:30:11;;;;;;;6.28;4.45;;;12.30;99.90;;;;;;7359102;19;20365;-75
2022/10/24 04:32:36;;;;;;;6.88;4.50;;;12.30;99.90;;;;;;7333384;19;21246;-76
2022/10/24 04:35:02;;;;;;;7.07;4.97;;;12.30;99.90;;;;;;7362951;19;20338;-75
2022/10/24 04:37:28;;;;;;;5.47;4.20;;;12.30;99.90;;;;;;7354669;19;21967;-75
2022/10/24 04:39:54;;;;;;;5.63;4.60;;;12.30;99.90;;;;;;7369283;19;20344;-76
2022/10/24 04:42:20;;;;;;;5.50;4.70;;;12.30;99.90;;;;;;7342025;19;20328;-76
2022/10/24 04:44:46;;;;;;;9.88;8.10;;;12.20;99.90;;;;;;7341686;19;20357;-76
2022/10/24 04:47:11;;;;;;;5.50;5.00;;;12.20;99.90;;;;;;7340032;19;20324;-76
2022/10/24 04:49:37;;;;;;;6.17;5.40;;;12.20;99.90;;;;;;7348491;19;21055;-76
2022/10/24 04:52:03;;;;;;;6.07;5.18;;;12.20;99.90;;;;;;7337896;19;20359;-77
2022/10/24 04:54:28;;;;;;;5.97;5.10;;;12.20;99.90;;;;;;7341959;19;20981;-77
2022/10/24 04:56:54;;;;;;;5.40;4.60;;;12.20;99.90;;;;;;7358399;19;20329;-76
2022/10/24 04:59:19;;;;;;;5.05;4.47;;;12.10;99.90;;;;;;7322315;19;21003;-76
2022/10/24 05:01:45;;;;;;;5.37;4.30;;;12.10;99.90;;;;;;7338230;19;20317;-77
2022/10/24 05:04:11;;;;;;;7.57;5.13;;;12.20;99.90;;;;;;7340983;19;20324;-76
2022/10/24 05:06:37;;;;;;;5.03;4.17;;;12.10;99.90;;;;;;7361274;19;20320;-78
2022/10/24 05:09:02;;;;;;;4.15;3.67;;;12.20;99.90;;;;;;7341054;19;20312;-75
2022/10/24 05:11:28;;;;;;;4.83;3.80;;;12.30;99.90;;;;;;7362001;19;20315;-78
2022/10/24 05:13:54;;;;;;;4.22;3.60;;;12.30;99.90;;;;;;7340210;19;20431;-76
2022/10/24 05:16:19;;;;;;;4.40;3.70;;;12.30;99.90;;;;;;7342182;19;20336;-79
2022/10/24 05:18:45;;;;;;;5.57;4.63;;;12.30;99.90;;;;;;7359955;19;20978;-76
2022/10/24 05:21:10;;;;;;;5.50;4.27;;;12.20;99.90;;;;;;7361038;19;20321;-76
2022/10/24 05:23:36;;;;;;;4.95;4.45;;;12.10;99.90;;;;;;7361185;19;20345;-77
2022/10/24 05:26:01;;;;;;;6.40;4.43;;;12.10;99.90;;;;;;7340936;19;21036;-76
2022/10/24 05:28:27;;;;;;;5.07;4.33;;;12.00;99.90;;;;;;7360513;19;20324;-76
2022/10/24 05:30:52;;;;;;;4.45;3.88;;;12.10;99.90;;;;;;7339851;19;20349;-75
2022/10/24 05:33:18;;;;;;;4.83;4.13;;;12.10;99.90;;;;;;7356821;19;20666;-76
2022/10/24 05:35:44;;;;;;;4.60;4.20;;;12.00;99.90;;;;;;7362394;19;20395;-76
2022/10/24 05:38:09;;;;;;;4.80;4.00;;;12.00;99.90;;;;;;7350933;19;20350;-75
2022/10/24 05:40:35;;;;;;;9.48;4.40;;;11.90;99.90;;;;;;7332817;19;20376;-75
2022/10/24 05:43:00;;;;;;;5.37;3.83;;;11.90;99.90;;;;;;7360098;19;20325;-77
2022/10/24 05:45:26;;;;;;;5.00;4.10;;;11.90;99.90;;;;;;7362300;19;20332;-78
2022/10/24 05:47:51;;;;;;;6.57;4.68;;;11.90;99.90;;;;;;7337390;19;20353;-76
2022/10/24 05:50:17;;;;;;;4.37;3.93;;;11.80;99.90;;;;;;7344591;19;20330;-76
2022/10/24 05:52:43;;;;;;;8.93;4.13;;;11.80;99.90;;;;;;7361082;19;20312;-77
2022/10/24 05:55:09;;;;;;;5.57;4.10;;;11.80;99.90;;;;;;7357037;19;20708;-78
2022/10/24 05:57:35;;;;;;;4.75;3.70;;;11.80;99.90;;;;;;7354981;19;20359;-77
2022/10/24 06:00:01;;;;;;;5.53;3.80;;;11.80;99.90;;;;;;7358023;19;20369;-77
2022/10/24 06:02:26;;;;;;;5.27;3.90;;;11.80;99.90;;;;;;7335262;19;20341;-76
2022/10/24 06:04:54;;;;;;;6.37;3.83;;;11.80;99.90;;;;;;7343659;19;20329;-75
2022/10/24 06:07:19;;;;;;;4.00;3.60;;;11.90;99.90;;;;;;7364066;19;20404;-77
2022/10/24 06:09:45;;;;;;;4.03;3.57;;;11.90;99.90;;;;;;7364310;19;20320;-76
2022/10/24 06:12:11;;;;;;;4.87;3.90;;;11.90;99.90;;;;;;7353167;19;20961;-75
2022/10/24 06:14:37;;;;;;;4.47;3.35;;;11.90;99.90;;;;;;7359111;19;20321;-75
2022/10/24 06:17:04;;;;;;;4.18;3.60;;;11.90;99.90;;;;;;7364765;19;20408;-76
2022/10/24 06:19:30;;;;;;;4.43;3.65;;;11.90;99.90;;;;;;7364721;19;20369;-77
2022/10/24 06:21:55;;;;;;;4.27;3.70;;;12.00;99.90;;;;;;7364283;19;21016;-79
2022/10/24 06:24:21;;;;;;;7.68;4.40;;;12.00;99.90;;;;;;7363530;19;20352;-77
2022/10/24 06:26:46;;;;;;;4.80;4.27;;;12.10;99.90;;;;;;7342387;19;20328;-78
2022/10/24 06:29:12;;;;;;;5.53;3.97;;;12.10;99.90;;;;;;7365220;19;20332;-78
2022/10/24 06:31:38;;;;;;;3.90;3.50;;;12.00;99.90;;;;;;7365018;19;20876;-79
2022/10/24 06:34:04;;;;;;;4.18;3.60;;;12.10;99.90;;;;;;7366486;19;20340;-76
2022/10/24 06:36:29;;;;;;;5.80;4.22;;;12.10;99.90;;;;;;7365986;19;20328;-78
2022/10/24 06:38:56;;;;;;;5.33;4.20;;;12.20;99.90;;;;;;7365529;19;20796;-80
2022/10/24 06:41:22;;;;;;;5.10;3.95;;;12.30;99.90;;;;;;7366100;19;20344;-76
2022/10/24 06:43:48;;;;;;;4.63;4.00;;;12.30;99.90;;;;;;7365132;19;20410;-76
2022/10/24 06:46:14;;;;;;;6.22;4.32;;;12.40;99.90;;;;;;7367462;19;20297;-76
2022/10/24 06:48:40;;;;;;;4.85;4.07;;;12.50;99.90;;;;;;7364878;19;20368;-77
2022/10/24 06:51:05;;;;;;;7.33;4.70;;;12.50;99.90;;;;;;7366694;19;21207;-77
2022/10/24 06:53:31;;;;;;;8.05;4.65;;;12.60;99.90;;;;;;7364820;19;21217;-76
2022/10/24 06:56:00;;;;;;;4.13;3.50;;;12.60;99.90;;;;;;7366449;19;20325;-77
2022/10/24 06:58:32;;;;;;;4.88;4.25;;;12.70;99.90;;;;;;7366030;19;20407;-76
2022/10/24 07:00:58;;;;;;;6.93;5.00;;;12.80;99.90;;;;;;7367170;19;20305;-77
2022/10/24 07:03:23;;;;;;;8.27;4.63;;;12.90;99.90;;;;;;7366803;19;20351;-77
2022/10/24 07:05:49;;;;;;;6.77;4.43;;;13.00;99.90;;;;;;7374362;19;20993;-77
2022/10/24 07:08:14;;;;;;;5.68;4.47;;;13.00;99.90;;;;;;7369316;19;20436;-76
2022/10/24 07:10:40;;;;;;;6.03;3.90;;;13.00;99.90;;;;;;7372010;19;20311;-79
2022/10/24 07:13:06;;;;;;;6.90;4.53;;;13.10;99.90;;;;;;7368345;19;20333;-76
2022/10/24 07:15:31;;;;;;;6.05;4.55;;;13.10;99.90;;;;;;7365851;19;20345;-76
2022/10/24 07:17:57;;;;;;;5.57;4.28;;;13.10;99.90;;;;;;7364683;19;20395;-77
2022/10/24 07:20:22;;;;;;;5.90;4.43;;;13.10;99.90;;;;;;7368491;19;20341;-76
2022/10/24 07:22:48;;;;;;;6.17;3.70;;;13.20;99.90;;;;;;7363862;19;20311;-78
2022/10/24 07:25:13;;;;;;;6.13;4.22;;;13.20;99.90;;;;;;7365867;19;20937;-76
2022/10/24 07:27:39;;;;;;;4.80;3.70;;;13.20;99.90;;;;;;7364194;19;20400;-76
2022/10/24 07:30:05;;;;;;;4.17;3.43;;;13.30;99.90;;;;;;7365461;19;20352;-76
2022/10/24 07:32:31;;;;;;;6.45;3.92;;;13.30;99.90;;;;;;7363182;19;20337;-76
2022/10/24 07:34:57;;;;;;;5.95;4.10;;;13.30;99.90;;;;;;7367207;19;20301;-75
2022/10/24 07:37:22;;;;;;;9.17;4.70;;;13.40;99.90;;;;;;7363515;19;20353;-78
2022/10/24 07:39:48;;;;;;;4.43;3.60;;;13.30;99.90;;;;;;7366882;19;20887;-76
2022/10/24 07:42:14;;;;;;;5.82;4.18;;;13.40;99.90;;;;;;7364739;19;20323;-75
2022/10/24 07:44:39;;;;;;;7.17;4.70;;;13.50;99.90;;;;;;7366725;19;20305;-77
2022/10/24 07:47:07;;;;;;;5.78;4.28;;;13.60;99.90;;;;;;7363944;19;20317;-78
2022/10/24 07:49:33;;;;;;;7.53;4.00;;;13.60;99.90;;;;;;7365474;19;20340;-78
2022/10/24 07:51:59;;;;;;;4.97;3.75;;;13.70;99.90;;;;;;7362789;19;20345;-79
2022/10/24 07:54:25;;;;;;;4.53;3.70;;;13.80;99.90;;;;;;7366652;19;20345;-76
2022/10/24 07:56:51;;;;;;;8.17;4.13;;;13.80;99.90;;;;;;7365644;19;20311;-77
2022/10/24 07:59:16;;;;;;;5.90;3.97;;;13.90;99.90;;;;;;7366885;19;20313;-76
2022/10/24 08:01:42;;;;;;;7.60;3.50;;;14.00;99.90;;;;;;7363452;19;20821;-78
2022/10/24 08:04:09;;;;;;;5.15;3.78;;;14.00;99.90;;;;;;7364775;19;20328;-77
2022/10/24 08:06:34;;;;;;;6.13;3.63;;;14.10;99.90;;;;;;7367573;19;20351;-76
2022/10/24 08:09:00;;;;;;;6.00;3.50;;;14.20;99.90;;;;;;7366068;19;20321;-78
2022/10/24 08:11:26;;;;;;;5.18;3.45;;;14.30;99.90;;;;;;7365012;19;20386;-78
2022/10/24 08:13:52;;;;;;;5.55;3.40;;;14.40;99.90;;;;;;7364013;19;20353;-77
2022/10/24 08:16:19;;;;;;;4.18;2.85;;;14.50;99.90;;;;;;7366081;19;21292;-77
2022/10/24 08:18:45;;;;;;;3.15;2.70;;;14.50;99.90;;;;;;7364277;19;20400;-77
2022/10/24 08:21:12;;;;;;;7.87;3.60;;;14.60;99.90;;;;;;7363851;19;20343;-78
2022/10/24 08:23:39;;;;;;;4.80;3.28;;;14.70;99.90;;;;;;7362654;19;20340;-76
2022/10/24 08:26:06;;;;;;;4.88;3.55;;;14.80;99.90;;;;;;7363139;19;20317;-75
2022/10/24 08:28:31;;;;;;;4.93;3.30;;;14.90;99.90;;;;;;7362028;19;20419;-75
2022/10/24 08:31:07;;;;;;;5.40;2.90;;;15.10;99.90;;;;;;7365295;19;20787;-77
2022/10/24 08:33:33;;;;;;;5.22;3.28;;;15.20;99.90;;;;;;7362694;19;20345;-77
2022/10/24 08:36:00;;;;;;;4.10;3.15;;;15.30;99.90;;;;;;7366667;19;20327;-77
2022/10/24 08:38:27;;;;;;;6.40;3.25;;;15.40;99.90;;;;;;7364865;19;20866;-76
2022/10/24 08:40:52;;;;;;;5.80;3.58;;;15.50;99.90;;;;;;7365580;19;20356;-78
2022/10/24 08:43:18;;;;;;;5.00;3.40;;;15.60;99.90;;;;;;7364097;19;21128;-77
2022/10/24 08:45:49;;;;;;;4.33;3.73;;;15.70;99.90;;;;;;7364253;19;20308;-77
2022/10/24 08:48:18;;;;;;;5.82;3.10;;;15.80;99.90;;;;;;7362959;19;20867;-77
2022/10/24 08:50:45;;;;;;;4.03;3.20;;;15.90;99.90;;;;;;7366650;19;20325;-76
2022/10/24 08:53:24;;;;;;;3.90;3.45;;;16.00;99.90;;;;;;7363410;19;20802;-78
2022/10/24 08:55:54;;;;;;;5.07;3.10;;;16.20;99.90;;;;;;7265277;19;2019611;-76
2022/10/24 08:58:30;;;;;;;3.55;3.17;;;16.30;99.90;;;;;;7365194;19;20312;-76
2022/10/24 09:00:57;;;;;;;5.93;3.22;;;16.40;99.90;;;;;;7368329;19;20327;-76
2022/10/24 09:03:32;;;;;;;4.45;3.30;;;16.50;99.90;;;;;;7376379;19;20396;-82
2022/10/24 09:06:06;;;;;;;3.97;3.13;;;16.50;99.90;;;;;;7365128;19;20320;-77
2022/10/24 09:09:10;;;;;;;8.05;3.50;;;16.60;99.90;;;;;;7365583;19;20340;-79
2022/10/24 09:11:50;;;;;;;6.90;3.30;;;16.70;99.90;;;;;;7263195;19;2004536;-79
2022/10/24 09:14:20;;;;;;;4.60;3.10;;;16.80;99.90;;;;;;7367244;19;20316;-77
2022/10/24 09:16:55;;;;;;;6.15;3.40;;;17.00;99.90;;;;;;7366405;19;20316;-77
2022/10/24 09:19:22;;;;;;;5.03;2.83;;;17.20;99.90;;;;;;7264867;19;2020142;-78
2022/10/24 09:21:48;;;;;;;3.38;2.55;;;17.30;99.90;;;;;;7365133;19;20308;-78
2022/10/24 09:24:23;;;;;;;4.55;2.97;;;17.40;99.90;;;;;;7368501;19;20316;-77
2022/10/24 09:26:48;;;;;;;6.00;2.75;;;17.60;99.90;;;;;;7265514;19;2004301;-76
2022/10/24 09:29:14;;;;;;;4.67;2.70;;;17.60;99.90;;;;;;7373647;19;20313;-79
2022/10/24 09:31:40;;;;;;;5.90;2.97;;;17.70;99.90;;;;;;7367641;19;20345;-79
2022/10/24 09:34:05;;;;;;;6.75;2.63;;;17.80;99.90;;;;;;7372084;19;20786;-80
2022/10/24 09:36:31;;;;;;;4.03;2.73;;;17.90;99.90;;;;;;7369597;19;20361;-81
2022/10/24 09:38:56;;;;;;;3.60;2.57;;;17.90;99.90;;;;;;7371617;19;20315;-82
2022/10/24 09:41:27;;;;;;;7.97;2.67;;;18.00;99.90;;;;;;7375191;19;20317;-84
2022/10/24 09:43:55;;;;;;;8.13;2.70;;;18.00;99.90;;;;;;7374177;19;20324;-77
2022/10/24 09:46:43;;;;;;;4.78;2.55;;;18.10;99.90;;;;;;7376343;19;20393;-79
2022/10/24 09:49:13;;;;;;;6.05;2.83;;;18.20;99.90;;;;;;7380174;19;20314;-79
2022/10/24 09:52:01;;;;;;;6.03;2.60;;;18.40;99.90;;;;;;7384727;19;20361;-79
2022/10/24 09:54:28;;;;;;;3.58;2.20;;;18.40;99.90;;;;;;7272344;19;2004397;-76
2022/10/24 09:57:02;;;;;;;5.70;2.70;;;18.50;99.90;;;;;;7372129;19;20337;-77
2022/10/24 09:59:36;;;;;;;6.82;2.83;;;18.50;99.90;;;;;;7373740;19;20344;-80
2022/10/24 10:02:23;;;;;;;5.05;2.50;;;18.60;99.90;;;;;;7371529;19;20350;-80
2022/10/24 10:05:01;;;;;;;3.22;2.50;;;18.60;99.90;;;;;;7269431;19;2004997;-78
2022/10/24 10:07:31;;;;;;;5.45;2.45;;;18.70;99.90;;;;;;7370652;19;20356;-77
2022/10/24 10:10:07;;;;;;;4.97;2.70;;;18.90;99.90;;;;;;7371371;19;20316;-82
2022/10/24 10:12:37;;;;;;;5.45;2.60;;;19.00;99.90;;;;;;7369787;19;20465;-82
2022/10/24 10:15:31;;;;;;;5.75;2.15;;;19.10;99.90;;;;;;7372481;19;20326;-81
2022/10/24 10:18:02;;;;;;;6.00;2.58;;;19.20;99.90;;;;;;7265618;19;2006010;-80
2022/10/24 10:20:37;;;;;;;5.15;2.65;;;19.40;99.90;;;;;;7370368;19;20387;-84
2022/10/24 10:23:44;;;;;;;5.82;2.38;;;19.40;99.90;;;;;;7368062;19;20389;-80
2022/10/24 10:26:19;;;;;;;6.47;2.50;;;19.60;99.90;;;;;;7267915;19;2004563;-82
2022/10/24 10:28:54;;;;;;;6.15;2.90;;;19.70;99.90;;;;;;7370494;19;20317;-84
2022/10/24 10:31:22;;;;;;;5.53;2.45;;;19.90;99.90;;;;;;7269151;19;2004419;-82
2022/10/24 10:33:57;;;;;;;6.05;2.85;;;19.90;99.90;;;;;;7368803;19;20312;-79
2022/10/24 10:36:26;;;;;;;5.07;2.60;;;20.10;99.90;;;;;;7371537;19;20345;-84
2022/10/24 10:38:54;;;;;;;5.07;2.70;;;20.20;99.90;;;;;;7369732;19;20317;-81
2022/10/24 10:41:44;;;;;;;3.35;2.40;;;20.30;99.90;;;;;;7369352;19;20337;-85
2022/10/24 10:44:23;;;;;;;3.50;2.28;;;20.40;99.90;;;;;;7370295;19;20329;-81
2022/10/24 10:46:59;;;;;;;6.22;2.63;;;20.50;99.90;;;;;;7267166;19;2004441;-80
2022/10/24 10:49:41;;;;;;;4.03;2.45;;;20.60;99.90;;;;;;7370111;19;20312;-80
2022/10/24 10:52:23;;;;;;;6.32;2.42;;;20.50;99.90;;;;;;7368177;19;20327;-84
2022/10/24 10:55:14;;;;;;;5.10;2.47;;;20.40;99.90;;;;;;7268683;19;2004360;-82
2022/10/24 10:57:51;;;;;;;5.15;2.30;;;20.40;99.90;;;;;;7370199;19;20309;-80
2022/10/24 11:00:34;;;;;;;5.77;2.90;;;20.30;99.90;;;;;;7369479;19;20316;-85
2022/10/24 11:03:24;;;;;;;4.65;2.15;;;20.40;99.90;;;;;;7267070;19;2005334;-80
2022/10/24 11:06:04;;;;;;;2.70;1.98;;;20.30;99.90;;;;;;7268664;19;2006770;-82
2022/10/24 11:08:52;;;;;;;5.07;2.17;;;20.40;99.90;;;;;;7368646;19;20321;-83
2022/10/24 11:11:23;;;;;;;5.78;2.08;;;20.40;99.90;;;;;;7266329;19;2004502;-81
2022/10/24 11:13:57;;;;;;;5.38;2.30;;;20.40;99.90;;;;;;7369040;19;20317;-79
2022/10/24 11:16:25;;;;;;;2.20;2.00;;;20.40;99.90;;;;;;7370998;19;20339;-83
2022/10/24 11:18:51;;;;;;;3.88;2.25;;;20.40;99.90;;;;;;7368960;19;20315;-81
2022/10/24 11:21:17;;;;;;;4.70;2.50;;;20.40;99.90;;;;;;7370624;19;20313;-82
2022/10/24 11:23:53;;;;;;;4.13;2.30;;;20.30;99.90;;;;;;7368147;19;20434;-82
2022/10/24 11:26:34;;;;;;;6.20;2.10;;;20.30;99.90;;;;;;7269036;19;2020129;-82
2022/10/24 11:29:18;;;;;;;5.20;2.60;;;20.30;99.90;;;;;;7368950;19;20305;-84
2022/10/24 11:31:47;;;;;;;3.90;2.33;;;20.20;99.90;;;;;;7369869;19;20878;-82
2022/10/24 11:34:33;;;;;;;6.53;2.37;;;20.20;99.90;;;;;;7372515;19;20412;-82
2022/10/24 11:37:02;;;;;;;4.45;2.20;;;20.10;99.90;;;;;;7265722;19;2019892;-81
2022/10/24 11:39:33;;;;;;;4.30;2.03;;;20.10;99.90;;;;;;7371438;19;20324;-83
2022/10/24 11:42:19;;;;;;;3.97;2.20;;;20.20;99.90;;;;;;7366923;19;20313;-82
2022/10/24 11:45:03;;;;;;;4.47;2.13;;;20.20;99.90;;;;;;7370275;19;20420;-84
2022/10/24 11:47:56;;;;;;;4.93;2.30;;;20.20;99.90;;;;;;7265965;19;2004284;-82
2022/10/24 11:50:47;;;;;;;3.00;2.20;;;20.20;99.90;;;;;;7270613;19;2004905;-82
2022/10/24 11:53:15;;;;;;;4.97;2.20;;;20.20;99.90;;;;;;7376989;19;20317;-85
2022/10/24 11:55:42;;;;;;;4.70;2.30;;;20.20;99.90;;;;;;7373667;19;20309;-77
2022/10/24 11:58:14;;;;;;;4.87;2.20;;;20.10;99.90;;;;;;7373578;19;20340;-82
2022/10/24 12:00:50;;;;;;;4.40;2.42;;;20.20;99.90;;;;;;7373167;19;20300;-81
2022/10/24 12:03:40;;;;;;;5.18;2.28;;;20.10;99.90;;;;;;7373142;19;20324;-79
2022/10/24 12:06:34;;;;;;;3.92;2.20;;;20.10;99.90;;;;;;7272437;19;2004699;-81
2022/10/24 12:09:25;;;;;;;4.72;1.98;;;20.10;99.90;;;;;;7267353;19;2019377;-79
2022/10/24 12:12:22;;;;;;;6.45;2.10;;;20.20;99.90;;;;;;7265624;19;2019904;-82
2022/10/24 12:15:05;;;;;;;3.22;1.92;;;20.20;99.90;;;;;;7370331;19;20320;-83
2022/10/24 12:17:47;;;;;;;4.88;2.20;;;20.20;99.90;;;;;;7265847;19;2019847;-82
2022/10/24 12:20:16;;;;;;;3.25;2.33;;;20.10;99.90;;;;;;7369452;19;20312;-79
2022/10/24 12:22:42;;;;;;;6.75;2.38;;;20.10;99.90;;;;;;7366396;19;20613;-78
2022/10/24 12:25:21;;;;;;;6.75;2.40;;;20.00;99.90;;;;;;7368581;19;20313;-81
2022/10/24 12:27:52;;;;;;;6.90;5.07;;;20.00;99.90;;;;;;7369410;19;20313;-85
2022/10/24 12:30:20;;;;;;;3.28;2.65;;;20.00;99.90;;;;;;7370692;19;20397;-82
2022/10/24 12:32:47;;;;;;;2.42;2.22;;;19.90;99.90;;;;;;7369525;19;20660;-81
2022/10/24 12:35:39;;;;;;;5.50;2.28;;;20.00;99.90;;;;;;7371026;19;20349;-78
2022/10/24 12:38:25;;;;;;;5.85;2.40;;;19.90;99.90;;;;;;7268912;19;2004362;-82
2022/10/24 12:40:54;;;;;;;4.10;2.33;;;19.90;99.90;;;;;;7270191;19;2004414;-82
2022/10/24 12:43:33;;;;;;;3.92;2.20;;;19.80;99.90;;;;;;7370608;19;20329;-85
2022/10/24 12:46:22;;;;;;;4.15;2.38;;;19.80;99.90;;;;;;7374256;19;20308;-82
2022/10/24 12:48:59;;;;;;;3.40;2.03;;;19.80;99.90;;;;;;7370742;19;20316;-80
2022/10/24 12:51:32;;;;;;;3.17;2.28;;;19.70;99.90;;;;;;7273422;19;2020076;-82
2022/10/24 12:54:12;;;;;;;3.45;2.35;;;19.70;99.90;;;;;;7372104;19;20312;-83
2022/10/24 12:56:50;;;;;;;3.80;2.15;;;19.70;99.90;;;;;;7374169;19;20532;-78
2022/10/24 12:59:20;;;;;;;8.73;2.70;;;19.70;99.90;;;;;;7378262;19;20352;-83
2022/10/24 13:01:47;;;;;;;5.18;2.15;;;19.60;99.90;;;;;;7375436;19;20327;-83